sensor_id;sensor_type;location;lat;lon;timestamp;temperature;humidity
40816;DHT22;26535;48.788;9.214;2023-12-29T00:01:33;10.10;99.90
40816;DHT22;26535;48.788;9.214;2023-12-29T00:04:01;10.10;99.90
40816;DHT22;26535;48.788;9.214;2023-12-29T00:06:26;10.20;99.90
40816;DHT22;26535;48.788;9.214;2023-12-29T00:08:55;10.20;99.90
40816;DHT22;26535;48.788;9.214;2023-12-29T00:11:20;10.20;99.90
40816;DHT22;26535;48.788;9.214;2023-12-29T00:13:47;10.20;99.90
40816;DHT22;26535;48.788;9.214;2023-12-29T00:16:13;10.20;99.90
40816;DHT22;26535;48.788;9.214;2023-12-29T00:18:38;10.20;99.90
40816;DHT22;26535;48.788;9.214;2023-12-29T00:21:05;10.20;99.90
40816;DHT22;26535;48.788;9.214;2023-12-29T00:23:31;10.30;99.90
40816;DHT22;26535;48.788;9.214;2023-12-29T00:25:57;10.40;99.90
40816;DHT22;26535;48.788;9.214;2023-12-29T00:28:22;10.40;99.90
40816;DHT22;26535;48.788;9.214;2023-12-29T00:30:48;10.40;99.90
40816;DHT22;26535;48.788;9.214;2023-12-29T00:33:14;10.20;99.90
40816;DHT22;26535;48.788;9.214;2023-12-29T00:35:39;10.20;99.90
40816;DHT22;26535;48.788;9.214;2023-12-29T00:38:05;10.20;99.90
40816;DHT22;26535;48.788;9.214;2023-12-29T00:40:35;10.10;99.90
40816;DHT22;26535;48.788;9.214;2023-12-29T00:43:01;10.10;99.90
40816;DHT22;26535;48.788;9.214;2023-12-29T00:45:27;10.20;99.90
40816;DHT22;26535;48.788;9.214;2023-12-29T00:48:02;10.20;99.90
40816;DHT22;26535;48.788;9.214;2023-12-29T00:50:27;10.20;99.90
40816;DHT22;26535;48.788;9.214;2023-12-29T00:52:54;10.20;99.90
40816;DHT22;26535;48.788;9.214;2023-12-29T00:55:20;10.20;99.90
40816;DHT22;26535;48.788;9.214;2023-12-29T00:57:45;10.30;99.90
40816;DHT22;26535;48.788;9.214;2023-12-29T01:00:12;10.30;99.90
40816;DHT22;26535;48.788;9.214;2023-12-29T01:02:39;10.30;99.90
40816;DHT22;26535;48.788;9.214;2023-12-29T01:05:05;10.30;99.90
40816;DHT22;26535;48.788;9.214;2023-12-29T01:07:31;10.30;99.90
40816;DHT22;26535;48.788;9.214;2023-12-29T01:09:57;10.30;99.90
40816;DHT22;26535;48.788;9.214;2023-12-29T01:12:24;10.30;99.90
40816;DHT22;26535;48.788;9.214;2023-12-29T01:14:50;10.30;99.90
40816;DHT22;26535;48.788;9.214;2023-12-29T01:17:15;10.30;99.90
40816;DHT22;26535;48.788;9.214;2023-12-29T01:19:41;10.40;99.90
40816;DHT22;26535;48.788;9.214;2023-12-29T01:22:07;10.40;99.90
40816;DHT22;26535;48.788;9.214;2023-12-29T01:24:33;10.30;99.90
40816;DHT22;26535;48.788;9.214;2023-12-29T01:26:58;10.30;99.90
40816;DHT22;26535;48.788;9.214;2023-12-29T01:29:25;10.30;99.90
40816;DHT22;26535;48.788;9.214;2023-12-29T01:31:50;10.20;99.90
40816;DHT22;26535;48.788;9.214;2023-12-29T01:34:16;10.10;99.90
40816;DHT22;26535;48.788;9.214;2023-12-29T01:36:42;10.10;99.90
40816;DHT22;26535;48.788;9.214;2023-12-29T01:39:08;10.20;99.90
40816;DHT22;26535;48.788;9.214;2023-12-29T01:41:33;10.30;99.90
40816;DHT22;26535;48.788;9.214;2023-12-29T01:46:26;10.40;99.90
40816;DHT22;26535;48.788;9.214;2023-12-29T01:48:53;10.40;99.90
40816;DHT22;26535;48.788;9.214;2023-12-29T01:51:21;10.40;99.90
40816;DHT22;26535;48.788;9.214;2023-12-29T01:53:55;10.50;99.90
40816;DHT22;26535;48.788;9.214;2023-12-29T01:56:21;10.50;99.90
40816;DHT22;26535;48.788;9.214;2023-12-29T01:58:49;10.50;99.90
40816;DHT22;26535;48.788;9.214;2023-12-29T02:01:15;10.60;99.80
40816;DHT22;26535;48.788;9.214;2023-12-29T02:03:42;10.60;99.70
40816;DHT22;26535;48.788;9.214;2023-12-29T02:06:09;10.60;99.70
40816;DHT22;26535;48.788;9.214;2023-12-29T02:08:38;10.60;99.80
40816;DHT22;26535;48.788;9.214;2023-12-29T02:11:04;10.50;99.80
40816;DHT22;26535;48.788;9.214;2023-12-29T02:13:31;10.50;99.90
40816;DHT22;26535;48.788;9.214;2023-12-29T02:16:04;10.50;99.90
40816;DHT22;26535;48.788;9.214;2023-12-29T02:18:33;10.40;99.90
40816;DHT22;26535;48.788;9.214;2023-12-29T02:21:00;10.50;99.90
40816;DHT22;26535;48.788;9.214;2023-12-29T02:23:28;10.50;99.90
40816;DHT22;26535;48.788;9.214;2023-12-29T02:25:58;10.50;99.90
40816;DHT22;26535;48.788;9.214;2023-12-29T02:28:27;10.60;99.90
40816;DHT22;26535;48.788;9.214;2023-12-29T02:31:00;10.60;99.90
40816;DHT22;26535;48.788;9.214;2023-12-29T02:33:27;10.60;99.80
40816;DHT22;26535;48.788;9.214;2023-12-29T02:35:57;10.60;99.80
40816;DHT22;26535;48.788;9.214;2023-12-29T02:38:25;10.60;99.80
40816;DHT22;26535;48.788;9.214;2023-12-29T02:40:55;10.70;99.70
40816;DHT22;26535;48.788;9.214;2023-12-29T02:43:21;10.60;99.60
40816;DHT22;26535;48.788;9.214;2023-12-29T02:45:47;10.60;99.60
40816;DHT22;26535;48.788;9.214;2023-12-29T02:48:12;10.60;99.70
40816;DHT22;26535;48.788;9.214;2023-12-29T02:50:39;10.60;99.60
40816;DHT22;26535;48.788;9.214;2023-12-29T02:53:06;10.60;99.70
40816;DHT22;26535;48.788;9.214;2023-12-29T02:55:31;10.60;99.80
40816;DHT22;26535;48.788;9.214;2023-12-29T02:57:57;10.60;99.90
40816;DHT22;26535;48.788;9.214;2023-12-29T03:00:23;10.50;99.90
40816;DHT22;26535;48.788;9.214;2023-12-29T03:02:48;10.50;99.90
40816;DHT22;26535;48.788;9.214;2023-12-29T03:05:15;10.40;99.90
40816;DHT22;26535;48.788;9.214;2023-12-29T03:07:42;10.40;99.90
40816;DHT22;26535;48.788;9.214;2023-12-29T03:10:08;10.40;99.90
40816;DHT22;26535;48.788;9.214;2023-12-29T03:12:34;10.40;99.90
40816;DHT22;26535;48.788;9.214;2023-12-29T03:14:59;10.40;99.90
40816;DHT22;26535;48.788;9.214;2023-12-29T03:17:26;10.30;99.90
40816;DHT22;26535;48.788;9.214;2023-12-29T03:19:52;10.30;99.90
40816;DHT22;26535;48.788;9.214;2023-12-29T03:22:18;10.20;99.90
40816;DHT22;26535;48.788;9.214;2023-12-29T03:24:44;10.20;99.90
40816;DHT22;26535;48.788;9.214;2023-12-29T03:27:10;10.00;99.90
40816;DHT22;26535;48.788;9.214;2023-12-29T03:29:36;10.00;99.90
40816;DHT22;26535;48.788;9.214;2023-12-29T03:32:02;10.00;99.90
40816;DHT22;26535;48.788;9.214;2023-12-29T03:34:28;10.00;99.90
40816;DHT22;26535;48.788;9.214;2023-12-29T03:36:54;10.00;99.90
40816;DHT22;26535;48.788;9.214;2023-12-29T03:39:19;10.00;99.90
40816;DHT22;26535;48.788;9.214;2023-12-29T03:41:45;10.00;99.90
40816;DHT22;26535;48.788;9.214;2023-12-29T03:44:11;9.90;99.90
40816;DHT22;26535;48.788;9.214;2023-12-29T03:46:37;9.80;99.90
40816;DHT22;26535;48.788;9.214;2023-12-29T03:49:02;9.70;99.90
40816;DHT22;26535;48.788;9.214;2023-12-29T03:51:28;9.70;99.90
40816;DHT22;26535;48.788;9.214;2023-12-29T03:53:54;9.60;99.90
40816;DHT22;26535;48.788;9.214;2023-12-29T03:56:20;9.60;99.90
40816;DHT22;26535;48.788;9.214;2023-12-29T03:58:46;9.60;99.90
40816;DHT22;26535;48.788;9.214;2023-12-29T04:01:13;9.60;99.90
40816;DHT22;26535;48.788;9.214;2023-12-29T04:03:39;9.60;99.90
40816;DHT22;26535;48.788;9.214;2023-12-29T04:06:05;9.50;99.90
40816;DHT22;26535;48.788;9.214;2023-12-29T04:08:32;9.40;99.90
40816;DHT22;26535;48.788;9.214;2023-12-29T04:10:58;9.30;99.90
40816;DHT22;26535;48.788;9.214;2023-12-29T04:13:23;9.30;99.90
40816;DHT22;26535;48.788;9.214;2023-12-29T04:15:49;9.30;99.90
40816;DHT22;26535;48.788;9.214;2023-12-29T04:18:15;9.40;99.90
40816;DHT22;26535;48.788;9.214;2023-12-29T04:20:40;9.40;99.90
40816;DHT22;26535;48.788;9.214;2023-12-29T04:23:07;9.60;99.90
40816;DHT22;26535;48.788;9.214;2023-12-29T04:25:33;9.70;99.90
40816;DHT22;26535;48.788;9.214;2023-12-29T04:27:59;9.70;99.90
40816;DHT22;26535;48.788;9.214;2023-12-29T04:30:25;9.70;99.90
40816;DHT22;26535;48.788;9.214;2023-12-29T04:32:50;9.60;99.90
40816;DHT22;26535;48.788;9.214;2023-12-29T04:35:17;9.70;99.90
40816;DHT22;26535;48.788;9.214;2023-12-29T04:37:44;9.60;99.90
40816;DHT22;26535;48.788;9.214;2023-12-29T04:40:11;9.60;99.90
40816;DHT22;26535;48.788;9.214;2023-12-29T04:42:36;9.50;99.90
40816;DHT22;26535;48.788;9.214;2023-12-29T04:45:03;9.50;99.90
40816;DHT22;26535;48.788;9.214;2023-12-29T04:47:29;9.50;99.90
40816;DHT22;26535;48.788;9.214;2023-12-29T04:49:55;9.50;99.90
40816;DHT22;26535;48.788;9.214;2023-12-29T04:52:20;9.50;99.90
40816;DHT22;26535;48.788;9.214;2023-12-29T04:54:46;9.50;99.90
40816;DHT22;26535;48.788;9.214;2023-12-29T04:57:12;9.60;99.90
40816;DHT22;26535;48.788;9.214;2023-12-29T04:59:37;9.60;99.90
40816;DHT22;26535;48.788;9.214;2023-12-29T05:02:03;9.70;99.90
40816;DHT22;26535;48.788;9.214;2023-12-29T05:04:29;9.80;99.90
40816;DHT22;26535;48.788;9.214;2023-12-29T05:06:54;9.70;99.90
40816;DHT22;26535;48.788;9.214;2023-12-29T05:09:20;9.70;99.90
40816;DHT22;26535;48.788;9.214;2023-12-29T05:11:46;9.80;99.90
40816;DHT22;26535;48.788;9.214;2023-12-29T05:14:12;9.70;99.90
40816;DHT22;26535;48.788;9.214;2023-12-29T05:16:37;9.80;99.90
40816;DHT22;26535;48.788;9.214;2023-12-29T05:19:03;9.90;99.90
40816;DHT22;26535;48.788;9.214;2023-12-29T05:21:29;9.90;99.90
40816;DHT22;26535;48.788;9.214;2023-12-29T05:23:56;9.90;99.90
40816;DHT22;26535;48.788;9.214;2023-12-29T05:26:22;10.00;99.90
40816;DHT22;26535;48.788;9.214;2023-12-29T05:28:47;10.00;99.90
40816;DHT22;26535;48.788;9.214;2023-12-29T05:31:13;9.90;99.90
40816;DHT22;26535;48.788;9.214;2023-12-29T05:33:39;9.90;99.90
40816;DHT22;26535;48.788;9.214;2023-12-29T05:36:09;9.90;99.90
40816;DHT22;26535;48.788;9.214;2023-12-29T05:38:35;9.90;99.90
40816;DHT22;26535;48.788;9.214;2023-12-29T05:41:04;9.90;99.90
40816;DHT22;26535;48.788;9.214;2023-12-29T05:43:31;9.80;99.90
40816;DHT22;26535;48.788;9.214;2023-12-29T05:45:58;9.70;99.90
40816;DHT22;26535;48.788;9.214;2023-12-29T05:48:24;9.70;99.90
40816;DHT22;26535;48.788;9.214;2023-12-29T05:50:53;9.60;99.90
40816;DHT22;26535;48.788;9.214;2023-12-29T05:53:19;9.60;99.90
40816;DHT22;26535;48.788;9.214;2023-12-29T05:55:45;9.70;99.90
40816;DHT22;26535;48.788;9.214;2023-12-29T05:58:11;9.60;99.90
40816;DHT22;26535;48.788;9.214;2023-12-29T06:00:37;9.60;99.90
40816;DHT22;26535;48.788;9.214;2023-12-29T06:03:05;9.60;99.90
40816;DHT22;26535;48.788;9.214;2023-12-29T06:05:31;9.60;99.90
40816;DHT22;26535;48.788;9.214;2023-12-29T06:07:57;9.60;99.90
40816;DHT22;26535;48.788;9.214;2023-12-29T06:10:22;9.60;99.90
40816;DHT22;26535;48.788;9.214;2023-12-29T06:12:49;9.60;99.90
40816;DHT22;26535;48.788;9.214;2023-12-29T06:15:15;9.60;99.90
40816;DHT22;26535;48.788;9.214;2023-12-29T06:17:40;9.50;99.90
40816;DHT22;26535;48.788;9.214;2023-12-29T06:20:08;9.50;99.90
40816;DHT22;26535;48.788;9.214;2023-12-29T06:22:41;9.50;99.90
40816;DHT22;26535;48.788;9.214;2023-12-29T06:25:11;9.50;99.90
40816;DHT22;26535;48.788;9.214;2023-12-29T06:27:37;9.50;99.90
40816;DHT22;26535;48.788;9.214;2023-12-29T06:30:07;9.50;99.90
40816;DHT22;26535;48.788;9.214;2023-12-29T06:32:33;9.40;99.90
40816;DHT22;26535;48.788;9.214;2023-12-29T06:34:59;9.30;99.90
40816;DHT22;26535;48.788;9.214;2023-12-29T06:37:24;9.30;99.90
40816;DHT22;26535;48.788;9.214;2023-12-29T06:39:50;9.30;99.90
40816;DHT22;26535;48.788;9.214;2023-12-29T06:42:16;9.30;99.90
40816;DHT22;26535;48.788;9.214;2023-12-29T06:44:42;9.30;99.90
40816;DHT22;26535;48.788;9.214;2023-12-29T06:47:07;9.30;99.90
40816;DHT22;26535;48.788;9.214;2023-12-29T06:49:36;9.40;99.90
40816;DHT22;26535;48.788;9.214;2023-12-29T06:52:02;9.40;99.90
40816;DHT22;26535;48.788;9.214;2023-12-29T06:54:28;9.30;99.90
40816;DHT22;26535;48.788;9.214;2023-12-29T06:56:53;9.30;99.90
40816;DHT22;26535;48.788;9.214;2023-12-29T06:59:19;9.30;99.90
40816;DHT22;26535;48.788;9.214;2023-12-29T07:01:48;9.40;99.90
40816;DHT22;26535;48.788;9.214;2023-12-29T07:04:14;9.40;99.90
40816;DHT22;26535;48.788;9.214;2023-12-29T07:06:41;9.50;99.90
40816;DHT22;26535;48.788;9.214;2023-12-29T07:09:07;9.60;99.90
40816;DHT22;26535;48.788;9.214;2023-12-29T07:11:34;9.70;99.90
40816;DHT22;26535;48.788;9.214;2023-12-29T07:14:00;9.70;99.90
40816;DHT22;26535;48.788;9.214;2023-12-29T07:16:26;9.70;99.90
40816;DHT22;26535;48.788;9.214;2023-12-29T07:18:52;9.80;99.90
40816;DHT22;26535;48.788;9.214;2023-12-29T07:21:21;9.80;99.90
40816;DHT22;26535;48.788;9.214;2023-12-29T07:23:46;9.90;99.90
40816;DHT22;26535;48.788;9.214;2023-12-29T07:26:12;9.90;99.90
40816;DHT22;26535;48.788;9.214;2023-12-29T07:28:38;9.80;99.90
40816;DHT22;26535;48.788;9.214;2023-12-29T07:31:04;9.80;99.90
40816;DHT22;26535;48.788;9.214;2023-12-29T07:33:30;9.80;99.90
40816;DHT22;26535;48.788;9.214;2023-12-29T07:35:56;9.70;99.90
40816;DHT22;26535;48.788;9.214;2023-12-29T07:38:21;9.70;99.90
40816;DHT22;26535;48.788;9.214;2023-12-29T07:40:47;9.60;99.90
40816;DHT22;26535;48.788;9.214;2023-12-29T07:43:13;9.60;99.90
40816;DHT22;26535;48.788;9.214;2023-12-29T07:45:39;9.70;99.90
40816;DHT22;26535;48.788;9.214;2023-12-29T07:48:06;9.70;99.90
40816;DHT22;26535;48.788;9.214;2023-12-29T07:50:32;9.70;99.90
40816;DHT22;26535;48.788;9.214;2023-12-29T07:52:58;9.80;99.90
40816;DHT22;26535;48.788;9.214;2023-12-29T07:55:26;9.80;99.90
40816;DHT22;26535;48.788;9.214;2023-12-29T07:57:51;9.90;99.90
40816;DHT22;26535;48.788;9.214;2023-12-29T08:00:18;9.90;99.90
40816;DHT22;26535;48.788;9.214;2023-12-29T08:02:43;10.00;99.90
40816;DHT22;26535;48.788;9.214;2023-12-29T08:05:10;10.00;99.90
40816;DHT22;26535;48.788;9.214;2023-12-29T08:07:36;10.10;99.90
40816;DHT22;26535;48.788;9.214;2023-12-29T08:10:06;10.20;99.90
40816;DHT22;26535;48.788;9.214;2023-12-29T08:12:33;10.20;99.90
40816;DHT22;26535;48.788;9.214;2023-12-29T08:15:00;10.30;99.90
40816;DHT22;26535;48.788;9.214;2023-12-29T08:17:26;10.30;99.90
40816;DHT22;26535;48.788;9.214;2023-12-29T08:19:52;10.30;99.90
40816;DHT22;26535;48.788;9.214;2023-12-29T08:22:19;10.30;99.90
40816;DHT22;26535;48.788;9.214;2023-12-29T08:24:45;10.30;99.90
40816;DHT22;26535;48.788;9.214;2023-12-29T08:27:12;10.40;99.90
40816;DHT22;26535;48.788;9.214;2023-12-29T08:29:38;10.40;99.90
40816;DHT22;26535;48.788;9.214;2023-12-29T08:32:04;10.40;99.90
40816;DHT22;26535;48.788;9.214;2023-12-29T08:34:30;10.40;99.90
40816;DHT22;26535;48.788;9.214;2023-12-29T08:36:56;10.50;99.90
40816;DHT22;26535;48.788;9.214;2023-12-29T08:39:22;10.50;99.90
40816;DHT22;26535;48.788;9.214;2023-12-29T08:41:48;10.50;99.90
40816;DHT22;26535;48.788;9.214;2023-12-29T08:44:16;10.50;99.90
40816;DHT22;26535;48.788;9.214;2023-12-29T08:47:41;10.50;99.90
40816;DHT22;26535;48.788;9.214;2023-12-29T08:50:07;10.50;99.90
40816;DHT22;26535;48.788;9.214;2023-12-29T08:52:33;10.50;99.90
40816;DHT22;26535;48.788;9.214;2023-12-29T08:54:59;10.60;99.90
40816;DHT22;26535;48.788;9.214;2023-12-29T08:57:25;10.60;99.90
40816;DHT22;26535;48.788;9.214;2023-12-29T08:59:50;10.60;99.90
40816;DHT22;26535;48.788;9.214;2023-12-29T09:02:16;10.60;99.90
40816;DHT22;26535;48.788;9.214;2023-12-29T09:04:42;10.60;99.90
40816;DHT22;26535;48.788;9.214;2023-12-29T09:07:08;10.60;99.90
40816;DHT22;26535;48.788;9.214;2023-12-29T09:09:33;10.60;99.90
40816;DHT22;26535;48.788;9.214;2023-12-29T09:11:59;10.60;99.90
40816;DHT22;26535;48.788;9.214;2023-12-29T09:14:25;10.60;99.90
40816;DHT22;26535;48.788;9.214;2023-12-29T09:16:50;10.70;99.90
40816;DHT22;26535;48.788;9.214;2023-12-29T09:19:16;10.70;99.90
40816;DHT22;26535;48.788;9.214;2023-12-29T09:21:42;10.80;99.90
40816;DHT22;26535;48.788;9.214;2023-12-29T09:24:07;10.80;99.90
40816;DHT22;26535;48.788;9.214;2023-12-29T09:26:33;10.90;99.90
40816;DHT22;26535;48.788;9.214;2023-12-29T09:28:59;10.90;99.90
40816;DHT22;26535;48.788;9.214;2023-12-29T09:31:24;11.10;99.90
40816;DHT22;26535;48.788;9.214;2023-12-29T09:33:50;11.20;99.90
40816;DHT22;26535;48.788;9.214;2023-12-29T09:36:16;11.40;99.90
40816;DHT22;26535;48.788;9.214;2023-12-29T09:38:42;11.60;99.90
40816;DHT22;26535;48.788;9.214;2023-12-29T09:41:14;11.70;99.90
40816;DHT22;26535;48.788;9.214;2023-12-29T09:43:40;11.70;99.90
40816;DHT22;26535;48.788;9.214;2023-12-29T09:46:08;11.70;99.90
40816;DHT22;26535;48.788;9.214;2023-12-29T09:48:36;11.60;99.90
40816;DHT22;26535;48.788;9.214;2023-12-29T09:51:06;11.50;99.90
40816;DHT22;26535;48.788;9.214;2023-12-29T09:53:35;11.40;99.90
40816;DHT22;26535;48.788;9.214;2023-12-29T09:56:03;11.40;99.90
40816;DHT22;26535;48.788;9.214;2023-12-29T09:58:30;11.30;99.90
40816;DHT22;26535;48.788;9.214;2023-12-29T10:00:56;11.40;99.90
40816;DHT22;26535;48.788;9.214;2023-12-29T10:03:22;11.50;99.90
40816;DHT22;26535;48.788;9.214;2023-12-29T10:05:54;11.50;99.90
40816;DHT22;26535;48.788;9.214;2023-12-29T10:08:22;11.50;99.90
40816;DHT22;26535;48.788;9.214;2023-12-29T10:10:49;11.60;99.90
40816;DHT22;26535;48.788;9.214;2023-12-29T10:13:17;11.60;99.90
40816;DHT22;26535;48.788;9.214;2023-12-29T10:18:56;11.70;99.90
40816;DHT22;26535;48.788;9.214;2023-12-29T10:21:27;11.90;99.90
40816;DHT22;26535;48.788;9.214;2023-12-29T10:24:08;12.00;99.90
40816;DHT22;26535;48.788;9.214;2023-12-29T10:26:36;12.10;99.90
40816;DHT22;26535;48.788;9.214;2023-12-29T10:29:02;12.20;99.90
40816;DHT22;26535;48.788;9.214;2023-12-29T10:31:28;12.20;99.90
40816;DHT22;26535;48.788;9.214;2023-12-29T10:36:47;12.10;99.90
40816;DHT22;26535;48.788;9.214;2023-12-29T10:39:13;12.20;99.90
40816;DHT22;26535;48.788;9.214;2023-12-29T10:41:40;12.30;99.90
40816;DHT22;26535;48.788;9.214;2023-12-29T10:44:07;12.50;99.90
40816;DHT22;26535;48.788;9.214;2023-12-29T10:46:33;12.60;99.90
40816;DHT22;26535;48.788;9.214;2023-12-29T10:49:09;12.70;99.90
40816;DHT22;26535;48.788;9.214;2023-12-29T10:51:35;12.80;99.90
40816;DHT22;26535;48.788;9.214;2023-12-29T10:54:02;13.00;99.90
40816;DHT22;26535;48.788;9.214;2023-12-29T10:56:32;13.20;99.90
40816;DHT22;26535;48.788;9.214;2023-12-29T10:59:03;13.40;99.90
40816;DHT22;26535;48.788;9.214;2023-12-29T11:01:33;13.50;99.50
40816;DHT22;26535;48.788;9.214;2023-12-29T11:04:01;13.70;99.20
40816;DHT22;26535;48.788;9.214;2023-12-29T11:06:27;13.90;98.90
40816;DHT22;26535;48.788;9.214;2023-12-29T11:08:55;14.00;98.30
40816;DHT22;26535;48.788;9.214;2023-12-29T11:11:21;14.10;97.70
40816;DHT22;26535;48.788;9.214;2023-12-29T11:13:48;14.30;97.10
40816;DHT22;26535;48.788;9.214;2023-12-29T11:16:14;14.60;97.10
40816;DHT22;26535;48.788;9.214;2023-12-29T11:18:43;14.60;96.40
40816;DHT22;26535;48.788;9.214;2023-12-29T11:21:10;14.90;96.10
40816;DHT22;26535;48.788;9.214;2023-12-29T11:23:36;15.00;96.40
40816;DHT22;26535;48.788;9.214;2023-12-29T11:26:03;15.00;95.00
40816;DHT22;26535;48.788;9.214;2023-12-29T11:28:29;15.00;95.00
40816;DHT22;26535;48.788;9.214;2023-12-29T11:30:54;15.00;95.10
40816;DHT22;26535;48.788;9.214;2023-12-29T11:33:30;15.10;94.60
40816;DHT22;26535;48.788;9.214;2023-12-29T11:36:18;15.00;94.80
40816;DHT22;26535;48.788;9.214;2023-12-29T11:39:50;15.00;94.60
40816;DHT22;26535;48.788;9.214;2023-12-29T11:44:25;14.40;95.50
40816;DHT22;26535;48.788;9.214;2023-12-29T11:46:56;14.20;95.60
40816;DHT22;26535;48.788;9.214;2023-12-29T11:49:23;14.10;95.60
40816;DHT22;26535;48.788;9.214;2023-12-29T11:51:50;13.90;95.40
40816;DHT22;26535;48.788;9.214;2023-12-29T11:54:23;13.90;95.70
40816;DHT22;26535;48.788;9.214;2023-12-29T11:56:49;13.80;95.00
40816;DHT22;26535;48.788;9.214;2023-12-29T11:59:25;13.90;95.10
40816;DHT22;26535;48.788;9.214;2023-12-29T12:01:58;14.00;94.90
40816;DHT22;26535;48.788;9.214;2023-12-29T12:04:40;14.30;94.30
40816;DHT22;26535;48.788;9.214;2023-12-29T12:07:15;14.90;93.40
40816;DHT22;26535;48.788;9.214;2023-12-29T12:09:41;15.30;92.80
40816;DHT22;26535;48.788;9.214;2023-12-29T12:12:07;15.70;93.00
40816;DHT22;26535;48.788;9.214;2023-12-29T12:14:46;16.40;91.50
40816;DHT22;26535;48.788;9.214;2023-12-29T12:17:13;17.00;90.70
40816;DHT22;26535;48.788;9.214;2023-12-29T12:19:53;17.30;89.50
40816;DHT22;26535;48.788;9.214;2023-12-29T12:22:23;17.30;88.20
40816;DHT22;26535;48.788;9.214;2023-12-29T12:24:55;16.80;88.10
40816;DHT22;26535;48.788;9.214;2023-12-29T12:27:22;16.60;89.10
40816;DHT22;26535;48.788;9.214;2023-12-29T12:29:55;17.00;88.90
40816;DHT22;26535;48.788;9.214;2023-12-29T12:32:23;17.00;87.80
40816;DHT22;26535;48.788;9.214;2023-12-29T12:34:49;16.70;87.30
40816;DHT22;26535;48.788;9.214;2023-12-29T12:37:22;16.10;88.50
40816;DHT22;26535;48.788;9.214;2023-12-29T12:39:48;15.60;90.20
40816;DHT22;26535;48.788;9.214;2023-12-29T12:42:16;15.50;90.40
40816;DHT22;26535;48.788;9.214;2023-12-29T12:44:48;15.80;90.00
40816;DHT22;26535;48.788;9.214;2023-12-29T12:47:19;16.00;89.80
40816;DHT22;26535;48.788;9.214;2023-12-29T12:49:49;15.90;88.80
40816;DHT22;26535;48.788;9.214;2023-12-29T12:52:14;15.40;90.10
40816;DHT22;26535;48.788;9.214;2023-12-29T12:54:40;15.30;90.40
40816;DHT22;26535;48.788;9.214;2023-12-29T12:57:06;15.30;90.70
40816;DHT22;26535;48.788;9.214;2023-12-29T12:59:32;15.20;91.00
40816;DHT22;26535;48.788;9.214;2023-12-29T13:01:58;15.40;91.20
40816;DHT22;26535;48.788;9.214;2023-12-29T13:04:24;15.60;90.80
40816;DHT22;26535;48.788;9.214;2023-12-29T13:06:50;15.50;90.80
40816;DHT22;26535;48.788;9.214;2023-12-29T13:09:16;15.50;91.20
40816;DHT22;26535;48.788;9.214;2023-12-29T13:11:45;15.30;91.30
40816;DHT22;26535;48.788;9.214;2023-12-29T13:14:21;15.10;91.60
40816;DHT22;26535;48.788;9.214;2023-12-29T13:16:47;14.90;91.50
40816;DHT22;26535;48.788;9.214;2023-12-29T13:19:21;14.70;91.70
40816;DHT22;26535;48.788;9.214;2023-12-29T13:21:53;14.30;91.90
40816;DHT22;26535;48.788;9.214;2023-12-29T13:24:21;14.10;92.40
40816;DHT22;26535;48.788;9.214;2023-12-29T13:26:47;14.00;92.50
40816;DHT22;26535;48.788;9.214;2023-12-29T13:29:19;13.90;92.90
40816;DHT22;26535;48.788;9.214;2023-12-29T13:31:48;13.80;92.10
40816;DHT22;26535;48.788;9.214;2023-12-29T13:34:36;13.70;92.00
40816;DHT22;26535;48.788;9.214;2023-12-29T13:37:10;13.60;91.60
40816;DHT22;26535;48.788;9.214;2023-12-29T13:39:44;13.60;91.90
40816;DHT22;26535;48.788;9.214;2023-12-29T13:42:13;13.50;91.90
40816;DHT22;26535;48.788;9.214;2023-12-29T13:44:42;13.40;92.00
40816;DHT22;26535;48.788;9.214;2023-12-29T13:47:08;13.40;91.90
40816;DHT22;26535;48.788;9.214;2023-12-29T13:49:35;13.40;92.00
40816;DHT22;26535;48.788;9.214;2023-12-29T13:52:03;13.30;91.90
40816;DHT22;26535;48.788;9.214;2023-12-29T13:54:29;13.30;91.80
40816;DHT22;26535;48.788;9.214;2023-12-29T13:56:55;13.30;91.90
40816;DHT22;26535;48.788;9.214;2023-12-29T13:59:33;13.20;92.00
40816;DHT22;26535;48.788;9.214;2023-12-29T14:02:03;13.20;91.70
40816;DHT22;26535;48.788;9.214;2023-12-29T14:04:44;13.20;91.80
40816;DHT22;26535;48.788;9.214;2023-12-29T14:07:11;13.10;91.80
40816;DHT22;26535;48.788;9.214;2023-12-29T14:09:37;13.10;92.10
40816;DHT22;26535;48.788;9.214;2023-12-29T14:12:03;13.10;91.70
40816;DHT22;26535;48.788;9.214;2023-12-29T14:14:29;13.10;91.50
40816;DHT22;26535;48.788;9.214;2023-12-29T14:16:55;13.10;91.40
40816;DHT22;26535;48.788;9.214;2023-12-29T14:19:20;13.10;91.50
40816;DHT22;26535;48.788;9.214;2023-12-29T14:22:04;13.10;91.40
40816;DHT22;26535;48.788;9.214;2023-12-29T14:24:30;13.10;91.30
40816;DHT22;26535;48.788;9.214;2023-12-29T14:26:56;13.00;91.40
40816;DHT22;26535;48.788;9.214;2023-12-29T14:29:22;12.90;91.60
40816;DHT22;26535;48.788;9.214;2023-12-29T14:31:49;13.00;91.50
40816;DHT22;26535;48.788;9.214;2023-12-29T14:34:18;12.90;91.70
40816;DHT22;26535;48.788;9.214;2023-12-29T14:36:44;12.90;92.00
40816;DHT22;26535;48.788;9.214;2023-12-29T14:39:11;12.90;91.90
40816;DHT22;26535;48.788;9.214;2023-12-29T14:41:38;12.80;92.00
40816;DHT22;26535;48.788;9.214;2023-12-29T14:44:04;12.80;91.90
40816;DHT22;26535;48.788;9.214;2023-12-29T14:46:29;12.80;91.90
40816;DHT22;26535;48.788;9.214;2023-12-29T14:48:57;12.80;91.80
40816;DHT22;26535;48.788;9.214;2023-12-29T14:51:26;12.80;91.90
40816;DHT22;26535;48.788;9.214;2023-12-29T14:53:51;12.80;92.00
40816;DHT22;26535;48.788;9.214;2023-12-29T14:56:18;12.80;91.90
40816;DHT22;26535;48.788;9.214;2023-12-29T14:58:44;12.80;91.70
40816;DHT22;26535;48.788;9.214;2023-12-29T15:01:10;12.90;91.70
40816;DHT22;26535;48.788;9.214;2023-12-29T15:03:36;12.80;91.80
40816;DHT22;26535;48.788;9.214;2023-12-29T15:06:02;12.80;91.80
40816;DHT22;26535;48.788;9.214;2023-12-29T15:08:28;12.90;91.90
40816;DHT22;26535;48.788;9.214;2023-12-29T15:11:01;12.70;91.90
40816;DHT22;26535;48.788;9.214;2023-12-29T15:13:27;12.70;91.60
40816;DHT22;26535;48.788;9.214;2023-12-29T15:15:54;12.70;91.70
40816;DHT22;26535;48.788;9.214;2023-12-29T15:18:19;12.70;91.80
40816;DHT22;26535;48.788;9.214;2023-12-29T15:20:45;12.50;91.90
40816;DHT22;26535;48.788;9.214;2023-12-29T15:23:10;12.50;92.20
40816;DHT22;26535;48.788;9.214;2023-12-29T15:25:36;12.40;92.00
40816;DHT22;26535;48.788;9.214;2023-12-29T15:28:03;12.30;92.00
40816;DHT22;26535;48.788;9.214;2023-12-29T15:30:29;12.20;92.00
40816;DHT22;26535;48.788;9.214;2023-12-29T15:32:54;12.20;92.00
40816;DHT22;26535;48.788;9.214;2023-12-29T15:35:20;12.10;92.20
40816;DHT22;26535;48.788;9.214;2023-12-29T15:37:46;12.10;92.30
40816;DHT22;26535;48.788;9.214;2023-12-29T15:40:11;12.10;92.40
40816;DHT22;26535;48.788;9.214;2023-12-29T15:42:37;12.10;92.30
40816;DHT22;26535;48.788;9.214;2023-12-29T15:45:03;12.10;92.20
40816;DHT22;26535;48.788;9.214;2023-12-29T15:47:29;12.10;92.00